Time;durP1;ratioP1;P1;durP2;ratioP2;P2;SDS_P1;SDS_P2;PMS_P1;PMS_P2;Temp;Humidity;BMP_temperature;BMP_pressure;BME280_temperature;BME280_humidity;BME280_pressure;Samples;Min_cycle;Max_cycle;Signal;HPM_P1;HPM_P2
2024/03/06 00:00:07;;;;;;;18.00;14.13;;;5.80;99.90;;;;;;4993341;28;20248;-64
2024/03/06 00:02:35;;;;;;;17.50;12.93;;;5.70;99.90;;;;;;4993816;28;20216;-65
2024/03/06 00:05:04;;;;;;;21.67;14.07;;;5.70;99.90;;;;;;4998760;28;20201;-65
2024/03/06 00:07:33;;;;;;;18.40;13.70;;;5.70;99.90;;;;;;4991853;28;20253;-64
2024/03/06 00:10:01;;;;;;;18.63;13.53;;;5.80;99.90;;;;;;4990311;28;20646;-64
2024/03/06 00:12:29;;;;;;;17.67;13.03;;;5.80;99.90;;;;;;4997405;28;20229;-65
2024/03/06 00:14:59;;;;;;;16.53;12.93;;;5.80;99.90;;;;;;4997530;28;20571;-65
2024/03/06 00:17:27;;;;;;;14.83;12.33;;;5.70;99.90;;;;;;5000087;28;20198;-64
2024/03/06 00:19:56;;;;;;;16.57;12.10;;;5.70;99.90;;;;;;4997647;28;20202;-65
2024/03/06 00:22:24;;;;;;;15.07;11.83;;;5.70;99.90;;;;;;4993820;28;20222;-65
2024/03/06 00:24:52;;;;;;;18.40;13.30;;;5.70;99.90;;;;;;5001638;28;20233;-65
2024/03/06 00:27:21;;;;;;;16.03;12.57;;;5.70;99.90;;;;;;4999495;28;20297;-64
2024/03/06 00:29:49;;;;;;;16.03;12.17;;;5.80;99.90;;;;;;4999937;28;20684;-65
2024/03/06 00:32:19;;;;;;;15.77;11.33;;;5.70;99.90;;;;;;5013251;28;20217;-64
2024/03/06 00:34:47;;;;;;;14.30;11.03;;;5.70;99.90;;;;;;5002959;28;20218;-64
2024/03/06 00:37:16;;;;;;;14.87;11.50;;;5.70;99.90;;;;;;5016310;28;20249;-65
2024/03/06 00:39:44;;;;;;;13.73;11.03;;;5.60;99.90;;;;;;5011051;28;20789;-64
2024/03/06 00:42:13;;;;;;;15.20;11.57;;;5.60;99.90;;;;;;4994575;28;20230;-65
2024/03/06 00:44:42;;;;;;;13.80;11.07;;;5.60;99.90;;;;;;4998882;28;20186;-65
2024/03/06 00:47:10;;;;;;;14.47;11.40;;;5.60;99.90;;;;;;5002939;28;20272;-65
2024/03/06 00:49:42;;;;;;;15.13;11.50;;;5.60;99.90;;;;;;5000003;28;20276;-65
2024/03/06 00:52:10;;;;;;;18.07;12.03;;;5.50;99.90;;;;;;4996385;28;20236;-65
2024/03/06 00:54:38;;;;;;;15.37;12.37;;;5.50;99.90;;;;;;5002674;28;20226;-64
2024/03/06 00:57:07;;;;;;;17.03;12.83;;;5.50;99.90;;;;;;4995693;28;20261;-65
2024/03/06 00:59:35;;;;;;;19.97;13.83;;;5.50;99.90;;;;;;4995299;28;20190;-65
2024/03/06 01:02:03;;;;;;;18.77;13.13;;;5.50;99.90;;;;;;4997596;28;20194;-65
2024/03/06 01:04:31;;;;;;;17.57;13.33;;;5.40;99.90;;;;;;4996830;28;20242;-64
2024/03/06 01:07:01;;;;;;;19.63;13.20;;;5.40;99.90;;;;;;4995216;28;20222;-65
2024/03/06 01:09:30;;;;;;;16.53;13.23;;;5.30;99.90;;;;;;5001157;28;20215;-65
2024/03/06 01:11:58;;;;;;;17.43;13.67;;;5.30;99.90;;;;;;5001152;28;20610;-65
2024/03/06 01:14:26;;;;;;;20.23;13.73;;;5.20;99.90;;;;;;4997899;28;20217;-65
2024/03/06 01:16:55;;;;;;;20.53;13.27;;;5.20;99.90;;;;;;4997219;28;20541;-65
2024/03/06 01:19:24;;;;;;;18.47;13.43;;;5.20;99.90;;;;;;4998382;28;20221;-65
2024/03/06 01:21:53;;;;;;;17.43;12.83;;;5.10;99.90;;;;;;4998560;28;20229;-65
2024/03/06 01:24:22;;;;;;;16.57;13.37;;;5.00;99.90;;;;;;4993848;28;20568;-65
2024/03/06 01:26:50;;;;;;;20.33;13.93;;;5.00;99.90;;;;;;4995556;28;20730;-64
2024/03/06 01:29:19;;;;;;;18.10;13.20;;;4.90;99.90;;;;;;5002426;28;20207;-65
2024/03/06 01:31:47;;;;;;;18.00;13.53;;;4.90;99.90;;;;;;4997707;28;20215;-65
2024/03/06 01:34:15;;;;;;;17.50;13.67;;;4.90;99.90;;;;;;5009023;28;20224;-64
2024/03/06 01:36:44;;;;;;;19.37;13.03;;;4.90;99.90;;;;;;5011549;28;20614;-64
2024/03/06 01:39:12;;;;;;;17.27;13.00;;;4.80;99.90;;;;;;5032952;28;20222;-65
2024/03/06 01:41:47;;;;;;;18.53;13.43;;;4.80;99.90;;;;;;5020043;28;20189;-65
2024/03/06 01:44:17;;;;;;;18.87;14.07;;;4.70;99.90;;;;;;5013514;28;20212;-64
2024/03/06 01:46:46;;;;;;;21.90;13.30;;;4.60;99.90;;;;;;5016478;28;20715;-65
2024/03/06 01:49:16;;;;;;;17.70;13.70;;;4.60;99.90;;;;;;5017825;28;20272;-64
2024/03/06 01:51:58;;;;;;;17.73;13.70;;;4.50;99.90;;;;;;5020958;28;20281;-65
2024/03/06 01:54:27;;;;;;;18.03;13.53;;;4.40;99.90;;;;;;5017419;28;20738;-65
2024/03/06 01:56:57;;;;;;;22.03;14.20;;;4.40;99.90;;;;;;5016773;28;20226;-64
2024/03/06 01:59:27;;;;;;;20.67;14.47;;;4.30;99.90;;;;;;5016226;28;20194;-64
2024/03/06 02:02:04;;;;;;;22.07;14.40;;;4.30;99.90;;;;;;5018408;28;20247;-64
2024/03/06 02:04:36;;;;;;;24.43;14.37;;;4.30;99.90;;;;;;5013518;28;20221;-65
2024/03/06 02:07:10;;;;;;;19.67;14.40;;;4.20;99.90;;;;;;5017290;28;20232;-65
2024/03/06 02:09:38;;;;;;;22.67;14.53;;;4.20;99.90;;;;;;5017204;28;20228;-64
2024/03/06 02:12:09;;;;;;;22.17;14.20;;;4.10;99.90;;;;;;5017317;28;20842;-65
2024/03/06 02:14:37;;;;;;;22.13;14.40;;;4.10;99.90;;;;;;5011219;28;20185;-65
2024/03/06 02:17:06;;;;;;;23.73;14.83;;;4.10;99.90;;;;;;5015401;28;20205;-65
2024/03/06 02:19:41;;;;;;;22.90;15.43;;;4.10;99.90;;;;;;5019162;28;20312;-65
2024/03/06 02:22:12;;;;;;;18.70;13.83;;;4.10;99.90;;;;;;4998284;28;20276;-65
2024/03/06 02:24:46;;;;;;;20.90;14.83;;;4.10;99.90;;;;;;4999744;28;20309;-64
2024/03/06 02:27:14;;;;;;;20.50;14.03;;;4.10;99.90;;;;;;4994550;28;20237;-64
2024/03/06 02:29:42;;;;;;;19.43;14.00;;;4.00;99.90;;;;;;4995195;28;20232;-65
2024/03/06 02:32:13;;;;;;;21.73;14.17;;;3.90;99.90;;;;;;4999770;28;20260;-64
2024/03/06 02:34:42;;;;;;;23.27;14.50;;;3.90;99.90;;;;;;4998198;28;20701;-64
2024/03/06 02:37:11;;;;;;;20.80;14.77;;;3.90;99.90;;;;;;4996086;28;20214;-65
2024/03/06 02:39:40;;;;;;;23.03;15.97;;;3.80;99.90;;;;;;4997274;28;20218;-65
2024/03/06 02:42:08;;;;;;;26.63;16.37;;;3.80;99.90;;;;;;4986959;28;20245;-64
2024/03/06 02:44:36;;;;;;;27.53;17.47;;;3.70;99.90;;;;;;4991234;28;20292;-64
2024/03/06 02:47:05;;;;;;;28.00;17.60;;;3.70;99.90;;;;;;4992596;28;20199;-64
2024/03/06 02:49:33;;;;;;;26.87;16.87;;;3.70;99.90;;;;;;4996394;28;20728;-64
2024/03/06 02:52:02;;;;;;;25.97;17.13;;;3.70;99.90;;;;;;4993991;28;20223;-64
2024/03/06 02:54:31;;;;;;;24.63;16.73;;;3.60;99.90;;;;;;4996252;28;20232;-64
2024/03/06 02:57:00;;;;;;;26.77;17.67;;;3.60;99.90;;;;;;4994385;28;20219;-64
2024/03/06 02:59:28;;;;;;;28.60;17.70;;;3.50;99.90;;;;;;4999050;28;20191;-63
2024/03/06 03:01:56;;;;;;;26.27;16.67;;;3.50;99.90;;;;;;4995766;28;20240;-64
2024/03/06 03:04:25;;;;;;;26.13;17.13;;;3.40;99.90;;;;;;4995638;28;20221;-64
2024/03/06 03:06:53;;;;;;;24.53;15.60;;;3.40;99.90;;;;;;4990979;28;20701;-64
2024/03/06 03:09:21;;;;;;;23.23;15.03;;;3.30;99.90;;;;;;4994690;28;20237;-64
2024/03/06 03:11:51;;;;;;;26.60;17.37;;;3.20;99.90;;;;;;4993299;28;20582;-64
2024/03/06 03:14:19;;;;;;;26.37;17.07;;;3.10;99.90;;;;;;4995115;28;20215;-64
2024/03/06 03:16:47;;;;;;;30.30;17.67;;;3.10;99.90;;;;;;5010291;28;20226;-64
2024/03/06 03:19:16;;;;;;;28.93;17.63;;;3.10;99.90;;;;;;5013505;28;20225;-64
2024/03/06 03:21:45;;;;;;;25.93;16.77;;;3.10;99.90;;;;;;5013040;28;20222;-64
2024/03/06 03:24:13;;;;;;;28.53;17.37;;;3.10;99.90;;;;;;5011829;28;20218;-64
2024/03/06 03:26:42;;;;;;;25.20;17.13;;;3.10;99.90;;;;;;5009394;28;20208;-64
2024/03/06 03:29:12;;;;;;;26.40;16.93;;;3.10;99.90;;;;;;5014845;28;20201;-64
2024/03/06 03:31:40;;;;;;;27.13;17.13;;;3.10;99.90;;;;;;5017526;28;20214;-64
2024/03/06 03:34:08;;;;;;;28.90;17.53;;;3.10;99.90;;;;;;5012468;28;20630;-63
2024/03/06 03:36:41;;;;;;;26.50;17.27;;;3.10;99.90;;;;;;5017950;28;20766;-64
2024/03/06 03:39:15;;;;;;;25.37;17.03;;;3.20;99.90;;;;;;5016727;28;20245;-64
2024/03/06 03:41:45;;;;;;;28.17;17.07;;;3.10;99.90;;;;;;5016345;28;20695;-64
2024/03/06 03:44:16;;;;;;;30.27;16.73;;;3.10;99.90;;;;;;5013862;28;20694;-64
2024/03/06 03:46:44;;;;;;;28.50;17.70;;;3.20;99.90;;;;;;5007094;28;20257;-64
2024/03/06 03:49:13;;;;;;;28.70;17.07;;;3.10;99.90;;;;;;4995637;28;20253;-64
2024/03/06 03:51:41;;;;;;;26.10;16.27;;;3.00;99.90;;;;;;4984320;28;20621;-64
2024/03/06 03:54:10;;;;;;;24.40;16.67;;;2.90;99.90;;;;;;4994501;28;20255;-64
2024/03/06 03:56:38;;;;;;;23.47;15.07;;;2.80;99.90;;;;;;4993514;28;20531;-64
2024/03/06 03:59:07;;;;;;;22.00;15.10;;;2.80;99.90;;;;;;4990232;28;20195;-64
2024/03/06 04:01:37;;;;;;;26.13;14.90;;;2.80;99.90;;;;;;4989162;28;20224;-64
2024/03/06 04:04:06;;;;;;;25.03;15.60;;;2.70;99.90;;;;;;4985239;28;20242;-64
2024/03/06 04:06:35;;;;;;;26.90;16.60;;;2.60;99.90;;;;;;4996693;28;20226;-64
2024/03/06 04:09:04;;;;;;;28.30;16.23;;;2.60;99.90;;;;;;5008463;28;20226;-64
2024/03/06 04:11:34;;;;;;;26.07;16.47;;;2.60;99.90;;;;;;5011419;28;20206;-64
2024/03/06 04:14:03;;;;;;;31.83;18.10;;;2.50;99.90;;;;;;5007644;28;20283;-63
2024/03/06 04:16:31;;;;;;;29.17;17.53;;;2.50;99.90;;;;;;5009254;28;20280;-64
2024/03/06 04:19:03;;;;;;;30.27;18.30;;;2.50;99.90;;;;;;5014795;28;20642;-64
2024/03/06 04:21:31;;;;;;;29.67;17.80;;;2.50;99.90;;;;;;5016579;28;20246;-64
2024/03/06 04:24:00;;;;;;;28.70;18.20;;;2.40;99.90;;;;;;5011333;28;20321;-64
2024/03/06 04:26:28;;;;;;;29.50;17.57;;;2.40;99.90;;;;;;5013876;28;20198;-64
2024/03/06 04:28:56;;;;;;;29.50;17.50;;;2.40;99.90;;;;;;5017175;28;20759;-64
2024/03/06 04:31:24;;;;;;;29.23;17.20;;;2.30;99.90;;;;;;5015882;28;20836;-64
2024/03/06 04:33:53;;;;;;;26.90;16.40;;;2.30;99.90;;;;;;5017065;28;20239;-64
2024/03/06 04:36:22;;;;;;;26.43;15.33;;;2.20;99.90;;;;;;5018720;28;20413;-64
2024/03/06 04:38:51;;;;;;;28.47;16.87;;;2.10;99.90;;;;;;5009520;28;20228;-64
2024/03/06 04:41:20;;;;;;;30.93;17.70;;;2.10;99.90;;;;;;5011526;28;20194;-64
2024/03/06 04:43:50;;;;;;;33.13;18.53;;;2.10;99.90;;;;;;5018979;28;20662;-64
2024/03/06 04:46:19;;;;;;;32.67;18.83;;;2.00;99.90;;;;;;5000305;28;20268;-64
2024/03/06 04:48:48;;;;;;;32.17;18.77;;;2.10;99.90;;;;;;4991446;28;20226;-64
2024/03/06 04:51:19;;;;;;;30.23;18.97;;;2.10;99.90;;;;;;5000056;28;20280;-64
2024/03/06 04:53:49;;;;;;;29.53;17.33;;;2.00;99.90;;;;;;4995580;28;20234;-64
2024/03/06 04:56:18;;;;;;;33.00;19.07;;;2.00;99.90;;;;;;4996861;28;20182;-64
2024/03/06 04:58:47;;;;;;;32.17;18.37;;;2.00;99.90;;;;;;4993603;28;20223;-64
2024/03/06 05:01:15;;;;;;;28.70;17.73;;;1.90;99.90;;;;;;4992276;28;20273;-64
2024/03/06 05:03:44;;;;;;;30.83;17.33;;;1.90;99.90;;;;;;4991863;28;20247;-64
2024/03/06 05:06:33;;;;;;;27.63;16.93;;;1.90;99.90;;;;;;4992966;28;20225;-64
2024/03/06 05:09:21;;;;;;;35.50;19.63;;;1.90;99.90;;;;;;4996958;28;20697;-64
2024/03/06 05:12:07;;;;;;;31.97;18.93;;;1.80;99.90;;;;;;4996945;28;20249;-64
2024/03/06 05:14:53;;;;;;;31.43;18.43;;;2.00;99.90;;;;;;5008450;28;20226;-64
2024/03/06 05:17:39;;;;;;;31.77;18.63;;;1.90;99.90;;;;;;4996464;28;20214;-64
2024/03/06 05:20:25;;;;;;;29.97;18.03;;;1.90;99.90;;;;;;4996199;28;20324;-64
2024/03/06 05:23:11;;;;;;;34.40;18.73;;;1.90;99.90;;;;;;4998613;28;20205;-64
2024/03/06 05:25:58;;;;;;;30.40;17.43;;;2.00;99.90;;;;;;5016146;28;20280;-64
2024/03/06 05:28:44;;;;;;;30.03;17.30;;;1.90;99.90;;;;;;5021311;28;20287;-64
2024/03/06 05:31:29;;;;;;;33.90;19.00;;;1.90;99.90;;;;;;5015102;28;20222;-64
2024/03/06 05:34:15;;;;;;;35.80;20.17;;;1.90;99.90;;;;;;5020515;28;20229;-64
2024/03/06 05:37:03;;;;;;;35.43;20.57;;;2.00;99.90;;;;;;5018923;28;21735;-64
2024/03/06 05:39:49;;;;;;;39.87;20.73;;;2.00;99.90;;;;;;5015964;28;20703;-64
2024/03/06 05:42:36;;;;;;;36.60;21.00;;;2.00;99.90;;;;;;5018880;28;20225;-64
2024/03/06 05:45:23;;;;;;;37.80;20.33;;;2.10;99.90;;;;;;5019696;28;20221;-64
2024/03/06 05:48:11;;;;;;;37.47;20.13;;;2.10;99.90;;;;;;5014104;28;20535;-64
2024/03/06 05:50:57;;;;;;;30.10;18.70;;;2.10;99.90;;;;;;5018278;28;20306;-64
2024/03/06 05:53:43;;;;;;;34.23;18.90;;;2.10;99.90;;;;;;5017598;28;20236;-64
2024/03/06 05:56:29;;;;;;;38.60;22.00;;;2.00;99.90;;;;;;5017176;28;20216;-65
2024/03/06 05:59:16;;;;;;;41.27;22.27;;;2.00;99.90;;;;;;5019599;28;20202;-64
2024/03/06 06:01:44;;;;;;;39.20;21.50;;;2.00;99.90;;;;;;5021138;28;20217;-64
2024/03/06 06:04:13;;;;;;;39.67;21.30;;;2.00;99.90;;;;;;5020905;28;20213;-64
2024/03/06 06:06:42;;;;;;;39.93;21.40;;;2.00;99.90;;;;;;5014860;28;20304;-64
2024/03/06 06:09:15;;;;;;;42.53;22.27;;;2.00;99.90;;;;;;4998874;28;20222;-64
2024/03/06 06:11:44;;;;;;;45.30;23.47;;;2.00;99.90;;;;;;4991673;28;20226;-64
2024/03/06 06:14:13;;;;;;;39.80;22.10;;;2.10;99.90;;;;;;4989117;28;20217;-64
2024/03/06 06:16:43;;;;;;;43.27;21.57;;;2.10;99.90;;;;;;5013031;28;20214;-64
2024/03/06 06:19:11;;;;;;;39.63;21.73;;;2.10;99.90;;;;;;5015182;28;20218;-64
2024/03/06 06:21:40;;;;;;;40.13;21.90;;;2.10;99.90;;;;;;5012899;28;20229;-64
2024/03/06 06:24:09;;;;;;;38.57;20.53;;;2.00;99.90;;;;;;5013626;28;20225;-64
2024/03/06 06:26:37;;;;;;;42.40;22.07;;;2.00;99.90;;;;;;5014768;28;20201;-64
2024/03/06 06:29:05;;;;;;;40.17;21.57;;;2.00;99.90;;;;;;5015887;28;20611;-64
2024/03/06 06:31:34;;;;;;;40.53;21.77;;;2.00;99.90;;;;;;5015595;28;20815;-64
2024/03/06 06:34:04;;;;;;;37.73;20.93;;;2.00;99.90;;;;;;5007566;28;20245;-64
2024/03/06 06:36:32;;;;;;;37.47;21.17;;;2.00;99.90;;;;;;5017575;28;20226;-64
2024/03/06 06:39:00;;;;;;;42.87;21.90;;;2.00;99.90;;;;;;5013474;28;20304;-64
2024/03/06 06:41:33;;;;;;;43.00;22.47;;;2.10;99.90;;;;;;5010546;28;20278;-64
2024/03/06 06:44:02;;;;;;;39.13;22.40;;;2.10;99.90;;;;;;5010753;28;20645;-64
2024/03/06 06:46:31;;;;;;;44.00;23.37;;;2.10;99.90;;;;;;5014832;28;20220;-64
2024/03/06 06:48:59;;;;;;;44.50;23.30;;;2.20;99.90;;;;;;5011618;28;20229;-64
2024/03/06 06:51:29;;;;;;;38.00;21.53;;;2.20;99.90;;;;;;5002148;28;20213;-64
2024/03/06 06:53:57;;;;;;;41.70;22.57;;;2.30;99.90;;;;;;4993319;28;20225;-64
2024/03/06 06:56:28;;;;;;;44.33;23.93;;;2.40;99.90;;;;;;4995986;28;20245;-64
2024/03/06 06:58:57;;;;;;;39.83;22.70;;;2.50;99.90;;;;;;4991093;28;20245;-64
2024/03/06 07:01:27;;;;;;;50.33;24.07;;;2.60;99.90;;;;;;4998850;28;20222;-64
2024/03/06 07:03:55;;;;;;;45.87;23.63;;;2.70;99.90;;;;;;4988536;28;20305;-63
2024/03/06 07:06:24;;;;;;;47.10;24.13;;;2.90;99.90;;;;;;4992904;28;20322;-64
2024/03/06 07:08:54;;;;;;;46.33;25.10;;;3.00;99.90;;;;;;4997955;28;20828;-63
2024/03/06 07:11:22;;;;;;;40.47;23.30;;;3.20;99.90;;;;;;4993699;28;20299;-63
2024/03/06 07:13:51;;;;;;;38.70;21.90;;;3.30;99.90;;;;;;4995675;28;20280;-63
2024/03/06 07:16:19;;;;;;;43.27;23.70;;;3.50;99.90;;;;;;4987192;28;20221;-63
2024/03/06 07:18:47;;;;;;;45.57;26.03;;;3.50;99.90;;;;;;5005412;28;20242;-64
2024/03/06 07:21:16;;;;;;;48.27;24.93;;;3.60;99.90;;;;;;5002301;28;20573;-63
2024/03/06 07:23:46;;;;;;;38.63;22.63;;;3.70;99.90;;;;;;4987535;28;20228;-63
2024/03/06 07:26:16;;;;;;;47.07;25.40;;;3.70;99.90;;;;;;4984749;28;20261;-64
2024/03/06 07:28:44;;;;;;;42.60;24.23;;;3.80;99.90;;;;;;4986404;28;20218;-64
2024/03/06 07:31:12;;;;;;;47.37;24.53;;;3.90;99.90;;;;;;4987586;28;20225;-64
2024/03/06 07:33:40;;;;;;;47.50;26.80;;;4.00;99.90;;;;;;4986870;28;20318;-64
2024/03/06 07:36:10;;;;;;;192.77;34.47;;;4.20;99.90;;;;;;4987006;28;20225;-64
2024/03/06 07:38:38;;;;;;;60.27;30.13;;;4.50;99.90;;;;;;4993470;28;20700;-63
2024/03/06 07:41:06;;;;;;;55.37;30.27;;;5.20;99.90;;;;;;4991092;28;20742;-63
2024/03/06 07:43:38;;;;;;;57.23;31.37;;;6.00;99.90;;;;;;4998209;28;20313;-64
2024/03/06 07:46:10;;;;;;;55.47;32.10;;;6.60;99.90;;;;;;4994799;28;20301;-63
2024/03/06 07:48:39;;;;;;;52.83;31.60;;;7.10;99.90;;;;;;4993253;28;21011;-64
2024/03/06 07:51:08;;;;;;;54.00;31.87;;;7.30;99.90;;;;;;4992636;28;20325;-63
2024/03/06 07:53:37;;;;;;;53.83;31.03;;;7.70;99.90;;;;;;4992562;28;20187;-63
2024/03/06 07:56:05;;;;;;;43.23;28.80;;;8.00;99.90;;;;;;4995269;28;20210;-64
2024/03/06 07:58:37;;;;;;;37.73;26.30;;;8.10;99.90;;;;;;4992087;28;20296;-64
2024/03/06 08:01:07;;;;;;;34.40;23.23;;;8.40;99.90;;;;;;4986889;28;20309;-64
2024/03/06 08:03:35;;;;;;;27.20;19.17;;;8.70;99.90;;;;;;4981169;28;20222;-64
2024/03/06 08:06:04;;;;;;;20.90;14.83;;;8.90;99.90;;;;;;4993159;28;20221;-64
2024/03/06 08:08:32;;;;;;;16.73;11.27;;;9.20;99.90;;;;;;4992355;28;20226;-64
2024/03/06 08:11:01;;;;;;;12.63;10.23;;;9.50;99.90;;;;;;4991334;28;20190;-64
2024/03/06 08:13:29;;;;;;;15.10;10.20;;;9.80;99.90;;;;;;4989412;28;20221;-64
2024/03/06 08:15:59;;;;;;;15.40;9.93;;;10.10;99.90;;;;;;4992547;28;20230;-64
2024/03/06 08:18:28;;;;;;;9.63;8.73;;;10.40;99.90;;;;;;4992518;28;20244;-64
2024/03/06 08:20:56;;;;;;;13.67;8.87;;;10.90;99.90;;;;;;4993578;28;20693;-64
2024/03/06 08:23:24;;;;;;;10.80;8.80;;;11.10;99.90;;;;;;4994943;28;20207;-65
2024/03/06 08:25:53;;;;;;;10.77;8.50;;;11.10;99.90;;;;;;4990687;28;20194;-65
2024/03/06 08:28:21;;;;;;;9.50;8.53;;;11.30;99.90;;;;;;5010671;28;20214;-65
2024/03/06 08:30:50;;;;;;;9.87;8.13;;;11.50;99.90;;;;;;5013682;28;20697;-65
2024/03/06 08:33:22;;;;;;;9.43;8.47;;;11.60;99.90;;;;;;5008932;28;20329;-65
2024/03/06 08:35:51;;;;;;;10.80;7.80;;;11.60;99.90;;;;;;5014125;28;20250;-65
2024/03/06 08:38:20;;;;;;;11.17;8.63;;;11.50;99.90;;;;;;5016356;28;20205;-65
2024/03/06 08:40:48;;;;;;;8.77;7.87;;;11.30;99.90;;;;;;5011225;28;20319;-65
2024/03/06 08:43:19;;;;;;;10.30;8.00;;;11.20;99.90;;;;;;5015065;28;20217;-65
2024/03/06 08:45:47;;;;;;;10.43;8.50;;;11.10;99.90;;;;;;5017853;28;20292;-65
2024/03/06 08:48:15;;;;;;;11.57;8.50;;;11.20;99.90;;;;;;5008418;28;20229;-65
2024/03/06 08:50:45;;;;;;;8.90;8.00;;;11.00;99.90;;;;;;5010555;28;20224;-65
2024/03/06 08:53:15;;;;;;;8.40;7.60;;;11.00;99.90;;;;;;5015500;28;20186;-65
2024/03/06 08:55:43;;;;;;;9.13;7.87;;;11.00;99.90;;;;;;5012404;28;20264;-65
2024/03/06 08:58:13;;;;;;;8.47;7.67;;;11.00;99.90;;;;;;5013535;28;20229;-65
2024/03/06 09:00:42;;;;;;;10.10;8.00;;;11.20;99.90;;;;;;5012590;28;20214;-65
2024/03/06 09:03:10;;;;;;;8.80;7.87;;;11.20;99.90;;;;;;5015458;28;20221;-64
2024/03/06 09:05:38;;;;;;;9.70;7.43;;;11.30;99.90;;;;;;5010236;28;20231;-65
2024/03/06 09:08:09;;;;;;;8.80;8.00;;;11.40;99.90;;;;;;5014098;28;20218;-65
2024/03/06 09:10:38;;;;;;;8.83;7.93;;;11.40;99.90;;;;;;5014281;28;20272;-65
2024/03/06 09:13:06;;;;;;;9.17;7.80;;;11.60;99.90;;;;;;5019517;28;20221;-65
2024/03/06 09:15:34;;;;;;;9.90;8.00;;;11.70;99.90;;;;;;5016604;28;20777;-64
2024/03/06 09:18:03;;;;;;;10.53;7.73;;;11.80;99.90;;;;;;5017236;28;20225;-64
2024/03/06 09:20:32;;;;;;;8.67;7.77;;;11.80;99.90;;;;;;5017718;28;20237;-64
2024/03/06 09:23:00;;;;;;;8.90;8.00;;;11.80;99.90;;;;;;5014022;28;20194;-65
2024/03/06 09:25:30;;;;;;;12.53;8.17;;;11.80;99.90;;;;;;5018972;28;20218;-65
2024/03/06 09:27:59;;;;;;;9.00;7.57;;;11.90;99.90;;;;;;5013985;28;20228;-65
2024/03/06 09:30:28;;;;;;;10.83;8.30;;;12.00;99.90;;;;;;5016749;28;20349;-65
2024/03/06 09:32:57;;;;;;;8.50;7.70;;;12.00;99.90;;;;;;5017805;28;20696;-64
2024/03/06 09:35:25;;;;;;;9.10;8.07;;;12.00;99.90;;;;;;5018062;28;20218;-64
2024/03/06 09:37:53;;;;;;;8.20;7.40;;;12.00;99.90;;;;;;5013800;28;20681;-65
2024/03/06 09:40:23;;;;;;;9.17;8.07;;;12.10;99.90;;;;;;5012577;28;20599;-64
2024/03/06 09:42:54;;;;;;;8.80;6.83;;;12.30;99.90;;;;;;5019158;28;20249;-64
2024/03/06 09:45:23;;;;;;;7.67;6.87;;;12.40;99.90;;;;;;5012663;28;20225;-65
2024/03/06 09:47:52;;;;;;;7.87;6.80;;;12.70;99.90;;;;;;5016251;28;20233;-65
2024/03/06 09:50:26;;;;;;;7.83;7.00;;;12.80;99.90;;;;;;5012905;28;20233;-64
2024/03/06 09:52:56;;;;;;;8.43;6.77;;;13.10;99.90;;;;;;5014171;28;20304;-65
2024/03/06 09:55:27;;;;;;;6.80;6.20;;;13.30;99.90;;;;;;5015847;28;20228;-65
2024/03/06 09:57:57;;;;;;;8.43;6.87;;;13.50;99.90;;;;;;5017552;28;20595;-64
2024/03/06 10:00:26;;;;;;;7.77;6.63;;;13.60;99.90;;;;;;5019583;28;20214;-65
2024/03/06 10:02:59;;;;;;;9.73;6.60;;;13.70;99.90;;;;;;5012893;28;20227;-65
2024/03/06 10:05:28;;;;;;;8.23;6.67;;;13.90;99.90;;;;;;5011474;28;20206;-65
2024/03/06 10:07:59;;;;;;;7.57;6.00;;;14.20;99.90;;;;;;5016258;28;20229;-65
2024/03/06 10:10:27;;;;;;;7.80;6.23;;;14.50;99.90;;;;;;5015127;28;20229;-65
2024/03/06 10:12:59;;;;;;;6.90;6.17;;;14.80;99.90;;;;;;5009555;28;20221;-65
2024/03/06 10:15:31;;;;;;;7.10;6.40;;;14.80;99.90;;;;;;5013386;28;20284;-65
2024/03/06 10:18:19;;;;;;;6.67;5.93;;;14.90;99.90;;;;;;5013264;28;20231;-65
2024/03/06 10:20:47;;;;;;;7.37;6.30;;;15.00;99.90;;;;;;5011698;28;20241;-65
2024/03/06 10:23:17;;;;;;;6.73;6.13;;;15.10;99.90;;;;;;5016316;28;20293;-65
2024/03/06 10:25:50;;;;;;;6.40;5.77;;;15.30;99.90;;;;;;5013815;28;20227;-65
2024/03/06 10:28:22;;;;;;;6.70;6.00;;;15.50;99.90;;;;;;5007940;28;20223;-65
2024/03/06 10:30:51;;;;;;;7.07;6.03;;;15.50;99.90;;;;;;5016286;28;20317;-65
2024/03/06 10:33:20;;;;;;;6.97;6.33;;;15.70;99.90;;;;;;5020898;28;20229;-65
2024/03/06 10:35:49;;;;;;;6.73;5.27;;;15.80;99.90;;;;;;5013284;28;20279;-65
2024/03/06 10:38:21;;;;;;;6.53;5.67;;;16.10;99.90;;;;;;5014380;28;20192;-65
2024/03/06 10:40:52;;;;;;;6.10;5.37;;;16.30;99.90;;;;;;4989942;28;20555;-65
2024/03/06 10:43:23;;;;;;;7.17;6.47;;;16.40;99.90;;;;;;4997009;28;20227;-66
2024/03/06 10:46:01;;;;;;;6.20;5.73;;;15.80;99.90;;;;;;5007391;28;20230;-66
2024/03/06 10:48:29;;;;;;;7.30;6.30;;;15.40;99.90;;;;;;5014470;28;20317;-66
2024/03/06 10:51:00;;;;;;;6.10;5.60;;;14.50;99.90;;;;;;5014058;28;20223;-65
2024/03/06 10:53:30;;;;;;;6.17;5.67;;;14.10;99.90;;;;;;5012673;28;20182;-65
2024/03/06 10:56:00;;;;;;;5.70;5.30;;;13.90;99.90;;;;;;5008457;28;20229;-65
2024/03/06 10:58:31;;;;;;;8.93;6.53;;;13.70;99.90;;;;;;5013457;28;20216;-65
2024/03/06 11:01:00;;;;;;;6.50;4.90;;;13.50;99.90;;;;;;5011276;28;20227;-65
2024/03/06 11:03:30;;;;;;;5.80;5.37;;;13.40;99.90;;;;;;5015052;28;20215;-65
2024/03/06 11:05:58;;;;;;;5.70;4.93;;;13.20;99.90;;;;;;5009331;28;20640;-65
2024/03/06 11:08:33;;;;;;;5.37;4.70;;;12.80;1.00;;;;;;5014726;28;20317;-65
2024/03/06 11:11:23;;;;;;;5.17;4.77;;;12.90;1.00;;;;;;5011348;28;20286;-65
2024/03/06 11:13:57;;;;;;;6.87;4.70;;;13.30;1.00;;;;;;4994087;28;20223;-65
2024/03/06 11:16:33;;;;;;;7.77;5.23;;;13.20;99.90;;;;;;4988248;28;20710;-65
2024/03/06 11:19:09;;;;;;;7.73;5.00;;;13.40;1.00;;;;;;4993320;28;20230;-65
2024/03/06 11:21:48;;;;;;;5.10;4.60;;;14.40;99.90;;;;;;5014887;28;20225;-66
2024/03/06 11:24:19;;;;;;;3.43;3.13;;;15.50;99.90;;;;;;4987889;28;20230;-66
2024/03/06 11:26:57;;;;;;;5.37;3.67;;;16.30;99.90;;;;;;4989832;28;20227;-66
2024/03/06 11:29:29;;;;;;;3.77;3.57;;;16.50;1.00;;;;;;4985857;28;20220;-66
2024/03/06 11:32:00;;;;;;;5.20;3.53;;;16.20;1.00;;;;;;4988418;28;20201;-66
2024/03/06 11:34:30;;;;;;;3.53;3.20;;;16.10;1.00;;;;;;4991856;28;20223;-66
2024/03/06 11:36:59;;;;;;;2.93;2.83;;;16.60;1.00;;;;;;4993976;28;20228;-66
2024/03/06 11:39:36;;;;;;;3.20;3.10;;;16.70;97.10;;;;;;4995746;28;20222;-66
2024/03/06 11:42:08;;;;;;;4.13;3.43;;;16.20;1.00;;;;;;4994331;28;20226;-66
2024/03/06 11:44:53;;;;;;;4.33;4.03;;;15.70;1.00;;;;;;4997352;28;20209;-66
2024/03/06 11:47:22;;;;;;;4.07;3.77;;;15.30;1.00;;;;;;4994395;28;20198;-66
2024/03/06 11:49:51;;;;;;;6.03;3.80;;;14.80;1.00;;;;;;4991588;28;20272;-66
2024/03/06 11:52:19;;;;;;;4.17;3.80;;;14.20;1.00;;;;;;4999870;28;20711;-66
2024/03/06 11:54:47;;;;;;;4.67;3.80;;;13.90;99.90;;;;;;5002025;28;20303;-66
2024/03/06 11:57:16;;;;;;;4.20;3.80;;;13.50;1.00;;;;;;4994467;28;20238;-66
2024/03/06 11:59:46;;;;;;;4.63;4.07;;;13.30;1.00;;;;;;4995079;28;20245;-66
2024/03/06 12:02:14;;;;;;;6.70;4.30;;;13.90;1.00;;;;;;4986337;28;20205;-66
2024/03/06 12:04:43;;;;;;;4.13;3.73;;;14.80;1.00;;;;;;4976157;28;20234;-66
2024/03/06 12:07:11;;;;;;;3.97;3.77;;;15.10;92.70;;;;;;4985789;28;20218;-66
2024/03/06 12:09:40;;;;;;;3.97;3.67;;;15.60;99.90;;;;;;4987886;28;20237;-65
2024/03/06 12:12:11;;;;;;;3.87;3.53;;;14.90;99.90;;;;;;4994289;28;20231;-66
2024/03/06 12:14:40;;;;;;;6.57;3.60;;;14.60;1.00;;;;;;4996691;28;20204;-66
2024/03/06 12:17:14;;;;;;;4.20;3.80;;;14.40;1.00;;;;;;4992775;28;20231;-65
2024/03/06 12:19:45;;;;;;;4.40;4.00;;;14.30;1.00;;;;;;4995580;28;20697;-65
2024/03/06 12:22:15;;;;;;;4.00;3.70;;;14.80;1.00;;;;;;4995867;28;20224;-65
2024/03/06 12:24:43;;;;;;;5.63;4.37;;;15.20;1.00;;;;;;4988630;28;20211;-65
2024/03/06 12:27:13;;;;;;;6.07;4.20;;;15.90;1.00;;;;;;4997287;28;20575;-66
2024/03/06 12:29:42;;;;;;;4.07;3.70;;;16.90;99.90;;;;;;4989955;28;20654;-65
2024/03/06 12:32:19;;;;;;;3.47;3.27;;;17.70;1.00;;;;;;4989996;28;20220;-63
2024/03/06 12:34:59;;;;;;;3.40;3.20;;;18.20;1.00;;;;;;5007482;28;20214;-64
2024/03/06 12:37:32;;;;;;;3.03;2.73;;;18.80;1.00;;;;;;4990831;28;20233;-64
2024/03/06 12:40:04;;;;;;;2.70;2.60;;;19.40;1.00;;;;;;4987016;28;20750;-64
2024/03/06 12:42:33;;;;;;;3.10;2.90;;;19.90;1.00;;;;;;4986826;28;20243;-64
2024/03/06 12:45:03;;;;;;;4.00;2.60;;;19.60;99.90;;;;;;4991433;28;20227;-64
2024/03/06 12:47:33;;;;;;;3.60;3.30;;;18.80;1.00;;;;;;4992374;28;20188;-64
2024/03/06 12:50:01;;;;;;;3.27;3.07;;;19.00;1.00;;;;;;4990898;28;20730;-64
2024/03/06 12:52:30;;;;;;;3.60;3.17;;;18.70;1.00;;;;;;4991592;28;20308;-64
2024/03/06 12:54:58;;;;;;;6.13;3.33;;;18.80;1.00;;;;;;4989473;28;20235;-64
2024/03/06 12:57:27;;;;;;;3.50;3.20;;;18.90;1.00;;;;;;4985593;28;20689;-64